createdAt,value
2022-12-19T00:02:21.816Z,13.52
2022-12-19T00:04:49.318Z,8.57
2022-12-19T00:07:16.735Z,9.40
2022-12-19T00:09:44.160Z,6.95
2022-12-19T00:12:17.456Z,8.60
2022-12-19T00:14:47.410Z,8.75
2022-12-19T00:17:14.985Z,7.35
2022-12-19T00:19:42.523Z,8.13
2022-12-19T00:22:11.361Z,7.65
2022-12-19T00:24:38.976Z,7.25
2022-12-19T00:27:06.402Z,6.57
2022-12-19T00:29:33.859Z,7.38
2022-12-19T00:32:03.287Z,9.20
2022-12-19T00:34:30.780Z,10.30
2022-12-19T00:36:58.253Z,9.75
2022-12-19T00:39:29.223Z,9.55
2022-12-19T00:41:56.706Z,8.02
2022-12-19T00:44:24.202Z,7.90
2022-12-19T00:46:53.684Z,9.52
2022-12-19T00:49:21.405Z,5.80
2022-12-19T00:51:49.263Z,7.55
2022-12-19T00:54:16.705Z,8.23
2022-12-19T00:56:44.471Z,7.82
2022-12-19T00:59:11.947Z,7.60
2022-12-19T01:01:41.537Z,5.82
2022-12-19T01:04:30.314Z,12.07
2022-12-19T01:07:02.037Z,15.68
2022-12-19T01:09:33.980Z,14.30
2022-12-19T01:12:21.062Z,10.45
2022-12-19T01:14:54.622Z,13.68
2022-12-19T01:17:25.282Z,9.43
2022-12-19T01:19:53.876Z,10.70
2022-12-19T01:22:21.305Z,15.00
2022-12-19T01:24:48.807Z,12.93
2022-12-19T01:27:16.388Z,15.48
2022-12-19T01:29:52.291Z,10.65
2022-12-19T01:32:21.825Z,14.15
2022-12-19T01:34:49.511Z,11.63
2022-12-19T01:37:17.387Z,14.68
2022-12-19T01:39:44.972Z,13.82
2022-12-19T01:42:22.937Z,14.85
2022-12-19T01:45:13.357Z,15.80
2022-12-19T01:47:41.227Z,12.65
2022-12-19T01:50:14.345Z,12.40
2022-12-19T01:52:42.746Z,16.25
2022-12-19T01:55:11.661Z,10.13
2022-12-19T01:57:39.511Z,15.68
2022-12-19T02:00:12.581Z,11.20
2022-12-19T02:02:49.080Z,15.80
2022-12-19T02:05:17.086Z,14.70
2022-12-19T02:07:45.039Z,17.30
2022-12-19T02:10:12.771Z,11.95
2022-12-19T02:12:43.165Z,12.07
2022-12-19T02:15:14.444Z,15.02
2022-12-19T02:17:52.697Z,16.90
2022-12-19T02:20:36.386Z,15.02
2022-12-19T02:23:32.288Z,16.95
2022-12-19T02:26:21.513Z,14.95
2022-12-19T02:29:03.931Z,19.42
2022-12-19T02:31:55.519Z,20.15
2022-12-19T02:34:33.814Z,14.75
2022-12-19T02:37:17.652Z,17.45
2022-12-19T02:40:04.975Z,24.25
2022-12-19T02:42:38.131Z,32.00
2022-12-19T02:45:08.627Z,24.23
2022-12-19T02:47:37.716Z,26.63
2022-12-19T02:50:07.644Z,27.00
2022-12-19T02:52:35.550Z,26.23
2022-12-19T02:55:20.149Z,19.70
2022-12-19T02:58:15.262Z,25.15
2022-12-19T03:01:04.716Z,22.70
2022-12-19T03:04:11.396Z,23.33
2022-12-19T03:07:06.845Z,22.35
2022-12-19T03:10:05.956Z,22.58
2022-12-19T03:12:40.651Z,19.02
2022-12-19T03:15:08.477Z,17.73
2022-12-19T03:17:39.763Z,18.75
2022-12-19T03:20:36.449Z,24.17
2022-12-19T03:23:03.924Z,26.23
2022-12-19T03:25:33.098Z,23.35
2022-12-19T03:28:03.658Z,27.58
2022-12-19T03:30:34.059Z,29.75
2022-12-19T03:33:03.079Z,26.77
2022-12-19T03:35:33.486Z,36.65
2022-12-19T03:38:04.419Z,29.38
2022-12-19T03:40:36.250Z,33.80
2022-12-19T03:43:11.506Z,29.55
2022-12-19T03:45:57.426Z,29.08
2022-12-19T03:48:27.962Z,33.58
2022-12-19T03:51:19.563Z,42.20
2022-12-19T03:53:47.370Z,34.80
2022-12-19T03:56:26.066Z,39.83
2022-12-19T03:59:01.890Z,30.90
2022-12-19T04:01:32.266Z,35.45
2022-12-19T04:04:01.182Z,33.70
2022-12-19T04:06:34.402Z,32.92
2022-12-19T04:09:02.680Z,29.95
2022-12-19T04:14:08.022Z,32.67
2022-12-19T04:16:41.679Z,39.58
2022-12-19T04:19:21.600Z,26.75
2022-12-19T04:21:56.427Z,31.83
2022-12-19T04:24:33.353Z,33.33
2022-12-19T04:27:03.715Z,22.58
2022-12-19T04:29:35.385Z,27.17
2022-12-19T04:32:05.911Z,34.22
2022-12-19T04:34:35.992Z,33.17
2022-12-19T04:37:05.695Z,34.05
2022-12-19T04:39:33.482Z,28.13
2022-12-19T04:42:01.076Z,30.38
2022-12-19T04:44:28.522Z,34.35
2022-12-19T04:46:56.075Z,25.95
2022-12-19T04:49:23.534Z,32.13
2022-12-19T04:54:19.205Z,27.92
2022-12-19T04:56:46.637Z,26.60
2022-12-19T04:59:14.098Z,29.05
2022-12-19T05:01:41.567Z,19.60
2022-12-19T05:04:09.204Z,19.98
2022-12-19T05:06:36.695Z,19.98
2022-12-19T05:09:04.188Z,24.48
2022-12-19T05:11:31.747Z,18.88
2022-12-19T05:13:59.872Z,24.90
2022-12-19T05:18:55.444Z,18.70
2022-12-19T05:21:23.642Z,25.67
2022-12-19T05:26:19.226Z,15.95
2022-12-19T05:28:47.624Z,19.83
2022-12-19T05:31:18.267Z,14.10
2022-12-19T05:33:46.520Z,9.85
2022-12-19T05:38:42.839Z,9.65
2022-12-19T05:41:15.311Z,13.00
2022-12-19T05:43:43.964Z,14.15
2022-12-19T05:46:12.226Z,15.75
2022-12-19T05:51:07.563Z,17.30
2022-12-19T05:53:39.868Z,20.17
2022-12-19T05:56:16.550Z,16.08
2022-12-19T05:58:45.131Z,19.98
2022-12-19T06:01:24.508Z,22.83
2022-12-19T06:03:52.984Z,18.58
2022-12-19T06:06:25.428Z,21.52
2022-12-19T06:08:57.906Z,24.45
2022-12-19T06:11:26.573Z,26.27
2022-12-19T06:13:54.109Z,18.35
2022-12-19T06:16:23.081Z,14.95
2022-12-19T06:18:51.036Z,17.23
2022-12-19T06:21:20.946Z,10.02
2022-12-19T06:23:49.936Z,15.38
2022-12-19T06:26:20.410Z,9.75
2022-12-19T06:28:52.591Z,12.23
2022-12-19T06:31:22.414Z,11.60
2022-12-19T06:33:50.560Z,13.98
2022-12-19T06:38:50.940Z,15.05
2022-12-19T06:41:37.785Z,16.13
2022-12-19T06:44:08.011Z,17.35
2022-12-19T06:46:37.088Z,18.15
2022-12-19T06:49:05.663Z,22.92
2022-12-19T06:51:33.570Z,30.77
2022-12-19T06:54:01.078Z,21.92
2022-12-19T06:56:29.154Z,27.08
2022-12-19T06:58:56.639Z,22.35
2022-12-19T07:01:44.818Z,22.42
2022-12-19T07:04:18.717Z,19.98
2022-12-19T07:06:49.215Z,20.00
2022-12-19T07:09:20.240Z,21.45
2022-12-19T07:11:47.785Z,21.65
2022-12-19T07:14:15.276Z,18.58
2022-12-19T07:16:42.989Z,14.85
2022-12-19T07:19:10.945Z,24.67
2022-12-19T07:21:39.238Z,20.77
2022-12-19T07:24:12.080Z,18.50
2022-12-19T07:26:39.618Z,22.73
2022-12-19T07:29:08.518Z,20.48
2022-12-19T07:31:36.390Z,22.60
2022-12-19T07:34:04.639Z,22.13
2022-12-19T07:38:59.511Z,16.73
2022-12-19T07:41:27.235Z,12.15
2022-12-19T07:43:54.731Z,13.75
2022-12-19T07:46:22.316Z,11.52
2022-12-19T07:48:50.678Z,9.45
2022-12-19T07:51:18.160Z,7.97
2022-12-19T07:53:45.795Z,14.15
2022-12-19T07:56:13.281Z,10.35
2022-12-19T07:58:41.276Z,15.27
2022-12-19T08:01:08.944Z,12.73
2022-12-19T08:03:36.473Z,14.77
2022-12-19T08:06:07.118Z,16.75
2022-12-19T08:08:37.978Z,20.15
2022-12-19T08:11:14.071Z,18.67
2022-12-19T08:13:46.352Z,19.60
2022-12-19T08:16:15.302Z,22.35
2022-12-19T08:18:42.976Z,19.80
2022-12-19T08:21:11.035Z,24.67
2022-12-19T08:23:41.180Z,18.38
2022-12-19T08:26:12.500Z,22.70
2022-12-19T08:28:40.248Z,18.02
2022-12-19T08:31:09.905Z,30.05
2022-12-19T08:33:37.924Z,23.45
2022-12-19T08:36:08.062Z,27.23
2022-12-19T08:38:36.142Z,29.85
2022-12-19T08:41:04.337Z,22.50
2022-12-19T08:43:32.546Z,22.88
2022-12-19T08:48:27.859Z,21.48
2022-12-19T08:51:01.081Z,24.73
2022-12-19T08:53:32.534Z,19.00
2022-12-19T08:56:12.012Z,18.33
2022-12-19T08:58:42.106Z,16.95
2022-12-19T09:01:14.137Z,22.05
2022-12-19T09:04:05.573Z,24.83
2022-12-19T09:06:33.258Z,30.33
2022-12-19T09:09:01.040Z,34.45
2022-12-19T09:11:28.672Z,31.13
2022-12-19T09:13:57.985Z,24.45
2022-12-19T09:16:27.953Z,25.90
2022-12-19T09:18:58.681Z,27.13
2022-12-19T09:21:31.587Z,22.73
2022-12-19T09:24:07.199Z,25.52
2022-12-19T09:26:38.679Z,18.88
2022-12-19T09:29:19.488Z,25.60
2022-12-19T09:31:55.540Z,22.90
2022-12-19T09:34:37.350Z,22.10
2022-12-19T09:37:15.968Z,17.77
2022-12-19T09:39:46.883Z,17.98
2022-12-19T09:42:41.062Z,16.75
2022-12-19T09:45:15.469Z,18.85
2022-12-19T09:47:58.761Z,17.85
2022-12-19T09:50:35.450Z,21.00
2022-12-19T09:53:11.313Z,17.35
2022-12-19T09:55:41.695Z,14.52
2022-12-19T09:58:28.828Z,13.20
2022-12-19T10:01:00.110Z,7.07
2022-12-19T10:03:39.803Z,10.38
2022-12-19T10:07:07.740Z,8.77
2022-12-19T10:10:28.425Z,9.98
2022-12-19T10:12:51.310Z,11.77
2022-12-19T10:15:38.041Z,10.18
2022-12-19T10:18:16.302Z,10.98
2022-12-19T10:21:01.431Z,16.08
2022-12-19T10:23:52.965Z,12.68
2022-12-19T10:26:37.091Z,13.55
2022-12-19T10:29:16.575Z,23.35
2022-12-19T10:31:56.152Z,16.27
2022-12-19T10:34:41.016Z,22.48
2022-12-19T10:37:27.246Z,16.67
2022-12-19T10:40:28.376Z,19.02
2022-12-19T10:43:35.697Z,30.90
2022-12-19T10:46:17.495Z,22.30
2022-12-19T10:48:45.198Z,17.42
2022-12-19T10:51:29.128Z,24.42
2022-12-19T10:54:00.287Z,31.77
2022-12-19T10:56:37.039Z,30.25
2022-12-19T10:59:21.954Z,22.10
2022-12-19T11:02:00.451Z,16.35
2022-12-19T11:04:36.026Z,25.40
2022-12-19T11:07:19.632Z,23.27
2022-12-19T11:10:32.175Z,19.33
2022-12-19T11:16:45.357Z,22.42
2022-12-19T11:18:34.011Z,13.40
2022-12-19T11:24:17.381Z,13.80
2022-12-19T11:29:34.803Z,10.77
2022-12-19T11:29:38.526Z,15.43
2022-12-19T11:30:09.735Z,14.80
2022-12-19T11:32:45.461Z,10.30
2022-12-19T11:35:36.432Z,14.20
2022-12-19T11:38:06.767Z,10.27
2022-12-19T11:40:49.949Z,13.30
2022-12-19T11:43:45.025Z,12.70
2022-12-19T11:46:40.449Z,11.43
2022-12-19T11:49:23.348Z,16.65
2022-12-19T11:51:50.786Z,13.10
2022-12-19T11:54:24.171Z,22.02
2022-12-19T11:56:51.977Z,24.27
2022-12-19T11:59:41.404Z,16.05
2022-12-19T12:02:15.050Z,25.20
2022-12-19T12:04:54.855Z,28.30
2022-12-19T12:07:33.194Z,24.50
2022-12-19T12:15:24.390Z,20.33
2022-12-19T12:24:54.414Z,19.98
2022-12-19T12:25:30.381Z,17.83
2022-12-19T12:31:06.600Z,27.75
2022-12-19T12:31:08.619Z,23.42
2022-12-19T12:31:39.469Z,26.92
2022-12-19T12:31:42.778Z,27.48
2022-12-19T12:35:17.509Z,26.50
2022-12-19T12:35:45.388Z,21.42
2022-12-19T12:38:27.070Z,24.63
2022-12-19T12:41:03.684Z,23.42
2022-12-19T12:44:00.541Z,34.90
2022-12-19T12:46:34.861Z,30.97
2022-12-19T12:49:05.164Z,20.80
2022-12-19T12:51:34.496Z,19.48
2022-12-19T12:54:07.951Z,21.20
2022-12-19T12:56:37.280Z,16.75
2022-12-19T12:59:23.968Z,19.58
2022-12-19T13:02:07.172Z,27.15
2022-12-19T13:04:42.121Z,18.95
2022-12-19T13:07:27.054Z,23.50
2022-12-19T13:10:30.922Z,16.35
2022-12-19T13:13:16.527Z,22.45
2022-12-19T13:15:46.199Z,19.10
2022-12-19T13:18:28.758Z,29.45
2022-12-19T13:20:58.936Z,23.15
2022-12-19T13:23:26.477Z,26.88
2022-12-19T13:25:54.668Z,16.80
2022-12-19T13:28:24.612Z,20.75
2022-12-19T13:31:21.247Z,25.20
2022-12-19T13:33:54.822Z,17.40
2022-12-19T13:39:54.403Z,24.15
2022-12-19T13:39:57.817Z,19.30
2022-12-19T13:43:09.852Z,19.35
2022-12-19T13:45:41.544Z,27.83
2022-12-19T13:48:16.524Z,19.80
2022-12-19T13:50:49.716Z,23.63
2022-12-19T13:53:23.601Z,17.58
2022-12-19T13:55:55.728Z,22.70
2022-12-19T13:58:35.192Z,18.83
2022-12-19T14:01:36.602Z,17.10
2022-12-19T14:04:35.122Z,18.00
2022-12-19T14:07:07.079Z,21.88
2022-12-19T14:11:28.817Z,20.25
2022-12-19T14:14:01.048Z,21.42
2022-12-19T14:18:51.340Z,22.77
2022-12-19T14:22:06.635Z,20.35
2022-12-19T14:24:23.097Z,22.92
2022-12-19T14:28:20.292Z,21.65
2022-12-19T14:30:29.205Z,22.73
2022-12-19T14:33:46.308Z,19.83
2022-12-19T14:36:10.320Z,18.75
2022-12-19T14:39:22.229Z,24.33
2022-12-19T14:41:49.053Z,29.63
2022-12-19T14:52:08.409Z,25.70
2022-12-19T14:52:08.675Z,20.25
2022-12-19T14:55:05.579Z,20.92
2022-12-19T14:57:04.198Z,19.95
2022-12-19T14:59:55.139Z,22.17
2022-12-19T15:02:32.715Z,18.50
2022-12-19T15:05:20.956Z,18.10
2022-12-19T15:07:59.119Z,24.98
2022-12-19T15:14:48.363Z,20.83
2022-12-19T15:16:34.620Z,16.77
2022-12-19T15:19:05.703Z,17.80
2022-12-19T15:21:33.428Z,22.70
2022-12-19T15:24:05.219Z,27.65
2022-12-19T15:26:35.969Z,23.15
2022-12-19T15:29:18.047Z,19.23
2022-12-19T15:31:56.654Z,22.33
2022-12-19T15:34:41.662Z,18.27
2022-12-19T15:39:53.958Z,18.20
2022-12-19T15:42:24.617Z,16.63
2022-12-19T15:45:03.378Z,19.70
2022-12-19T15:47:40.980Z,14.73
2022-12-19T15:50:32.168Z,15.60
2022-12-19T15:53:31.470Z,21.02
2022-12-19T15:56:19.891Z,22.48
2022-12-19T15:58:52.839Z,24.25
2022-12-19T16:01:23.763Z,18.58
2022-12-19T16:03:51.871Z,14.98
2022-12-19T16:06:20.053Z,19.10
2022-12-19T16:08:50.379Z,19.85
2022-12-19T16:11:34.124Z,21.17
2022-12-19T16:14:03.695Z,33.17
2022-12-19T16:16:35.605Z,25.92
2022-12-19T16:19:03.818Z,28.42
2022-12-19T16:21:36.932Z,30.88
2022-12-19T16:24:04.897Z,31.35
2022-12-19T16:26:35.623Z,23.70
2022-12-19T16:29:09.962Z,38.67
2022-12-19T16:31:37.725Z,34.70
2022-12-19T16:34:15.324Z,30.08
2022-12-19T16:36:46.185Z,34.38
2022-12-19T16:39:14.835Z,37.75
2022-12-19T16:41:48.015Z,28.73
2022-12-19T16:44:19.883Z,38.40
2022-12-19T16:46:53.304Z,30.75
2022-12-19T16:49:23.539Z,31.95
2022-12-19T16:51:53.858Z,40.13
2022-12-19T16:54:24.026Z,40.03
2022-12-19T16:56:56.591Z,41.45
2022-12-19T16:59:36.982Z,43.05
2022-12-19T17:02:34.035Z,29.20
2022-12-19T17:05:05.360Z,34.88
2022-12-19T17:07:33.386Z,37.53
2022-12-19T17:10:00.730Z,34.50
2022-12-19T17:12:28.958Z,31.55
2022-12-19T17:17:24.844Z,34.92
2022-12-19T17:19:52.742Z,34.58
2022-12-19T17:22:21.464Z,40.80
2022-12-19T17:24:49.459Z,37.50
2022-12-19T17:27:19.228Z,46.47
2022-12-19T17:29:53.080Z,40.35
2022-12-19T17:32:24.321Z,31.27
2022-12-19T17:34:53.014Z,34.88
2022-12-19T17:37:20.855Z,39.50
2022-12-19T17:39:48.933Z,39.92
2022-12-19T17:44:47.745Z,31.67
2022-12-19T17:47:16.671Z,32.92
2022-12-19T17:49:44.233Z,34.58
2022-12-19T17:52:19.953Z,43.20
2022-12-19T17:55:16.598Z,25.33
2022-12-19T17:57:44.250Z,33.78
2022-12-19T18:00:12.355Z,39.30
2022-12-19T18:02:44.001Z,28.17
2022-12-19T18:05:38.194Z,34.83
2022-12-19T18:08:16.326Z,34.63
2022-12-19T18:13:13.620Z,33.33
2022-12-19T18:15:41.505Z,38.85
2022-12-19T18:18:15.024Z,35.17
2022-12-19T18:20:44.584Z,33.72
2022-12-19T18:23:21.382Z,41.00
2022-12-19T18:25:51.744Z,41.88
2022-12-19T18:28:20.959Z,43.83
2022-12-19T18:30:49.677Z,39.35
2022-12-19T18:33:23.529Z,24.25
2022-12-19T18:35:51.480Z,26.33
2022-12-19T18:38:23.712Z,41.63
2022-12-19T18:40:52.031Z,36.63
2022-12-19T18:43:20.084Z,36.22
2022-12-19T18:45:52.021Z,32.63
2022-12-19T18:48:38.285Z,35.00
2022-12-19T18:51:06.235Z,33.50
2022-12-19T18:53:35.579Z,40.10
2022-12-19T18:56:05.911Z,29.95
2022-12-19T18:58:37.124Z,40.85
2022-12-19T19:01:11.469Z,38.45
2022-12-19T19:03:40.501Z,41.88
2022-12-19T19:06:19.756Z,53.97
2022-12-19T19:08:48.173Z,41.38
2022-12-19T19:11:27.726Z,44.08
2022-12-19T19:13:57.749Z,40.40
2022-12-19T19:16:27.118Z,42.45
2022-12-19T19:18:58.920Z,45.70
2022-12-19T19:21:32.391Z,44.45
2022-12-19T19:24:11.189Z,43.13
2022-12-19T19:26:38.699Z,37.63
2022-12-19T19:29:06.191Z,44.67
2022-12-19T19:31:37.439Z,48.08
2022-12-19T19:34:29.465Z,42.25
2022-12-19T19:37:00.017Z,39.55
2022-12-19T19:39:28.024Z,40.65
2022-12-19T19:41:56.304Z,49.28
2022-12-19T19:44:23.964Z,45.55
2022-12-19T19:46:51.452Z,33.40
2022-12-19T19:49:21.040Z,35.17
2022-12-19T19:51:48.669Z,34.20
2022-12-19T19:54:16.605Z,40.35
2022-12-19T19:56:44.330Z,40.40
2022-12-19T19:59:11.989Z,38.35
2022-12-19T20:01:39.472Z,44.50
2022-12-19T20:04:07.390Z,41.17
2022-12-19T20:06:34.951Z,45.20
2022-12-19T20:09:02.490Z,42.10
2022-12-19T20:11:30.532Z,38.90
2022-12-19T20:13:57.990Z,33.92
2022-12-19T20:16:25.566Z,40.10
2022-12-19T20:18:53.250Z,41.10
2022-12-19T20:21:21.588Z,35.67
2022-12-19T20:23:49.528Z,44.72
2022-12-19T20:26:18.369Z,53.22
2022-12-19T20:28:49.484Z,35.75
2022-12-19T20:31:19.544Z,45.72
2022-12-19T20:33:48.563Z,35.97
2022-12-19T20:36:16.600Z,42.50
2022-12-19T20:38:44.234Z,40.00
2022-12-19T20:41:11.873Z,40.50
2022-12-19T20:43:39.495Z,33.45
2022-12-19T20:46:16.034Z,36.88
2022-12-19T20:48:43.919Z,34.17
2022-12-19T20:51:12.350Z,28.88
2022-12-19T20:53:41.690Z,41.22
2022-12-19T20:56:14.697Z,41.38
2022-12-19T20:58:42.627Z,31.38
2022-12-19T21:01:14.984Z,29.17
2022-12-19T21:03:43.855Z,41.40
2022-12-19T21:06:12.726Z,34.05
2022-12-19T21:08:40.990Z,40.08
2022-12-19T21:11:09.974Z,35.65
2022-12-19T21:13:38.221Z,24.55
2022-12-19T21:18:39.097Z,29.17
2022-12-19T21:21:08.844Z,38.00
2022-12-19T21:23:36.391Z,36.10
2022-12-19T21:26:04.959Z,40.05
2022-12-19T21:28:33.321Z,28.63
2022-12-19T21:31:03.783Z,33.60
2022-12-19T21:33:34.366Z,25.08
2022-12-19T21:36:10.238Z,31.52
2022-12-19T21:38:38.029Z,31.65
2022-12-19T21:41:07.201Z,35.20
2022-12-19T21:43:38.802Z,24.88
2022-12-19T21:46:09.226Z,31.00
2022-12-19T21:48:45.182Z,31.63
2022-12-19T21:51:13.907Z,36.15
2022-12-19T21:53:41.772Z,27.90
2022-12-19T21:56:21.853Z,27.67
2022-12-19T21:58:54.625Z,27.40
2022-12-19T22:01:22.508Z,26.48
2022-12-19T22:03:51.035Z,25.17
2022-12-19T22:06:27.828Z,25.15
2022-12-19T22:08:56.453Z,31.73
2022-12-19T22:11:24.830Z,33.67
2022-12-19T22:13:52.694Z,23.08
2022-12-19T22:16:20.323Z,31.23
2022-12-19T22:18:47.851Z,30.15
2022-12-19T22:21:15.991Z,32.30
2022-12-19T22:23:43.541Z,34.20
2022-12-19T22:26:10.935Z,28.30
2022-12-19T22:28:40.849Z,27.98
2022-12-19T22:31:21.238Z,30.25
2022-12-19T22:33:51.197Z,31.38
2022-12-19T22:36:27.256Z,30.38
2022-12-19T22:38:55.528Z,26.27
2022-12-19T22:41:23.092Z,28.33
2022-12-19T22:43:50.884Z,32.45
2022-12-19T22:46:28.695Z,20.85
2022-12-19T22:48:58.981Z,27.45
2022-12-19T22:51:28.339Z,31.25
2022-12-19T22:53:59.018Z,31.88
2022-12-19T22:56:30.897Z,27.83
2022-12-19T22:59:07.526Z,24.25
2022-12-19T23:01:38.511Z,25.00
2022-12-19T23:04:07.827Z,28.83
2022-12-19T23:06:37.183Z,19.17
2022-12-19T23:09:11.123Z,24.55
2022-12-19T23:11:40.434Z,22.27
2022-12-19T23:14:09.803Z,19.15
2022-12-19T23:16:37.538Z,23.63
2022-12-19T23:19:05.337Z,25.08
2022-12-19T23:21:32.859Z,24.88
2022-12-19T23:24:00.592Z,22.23
2022-12-19T23:26:33.952Z,26.33
2022-12-19T23:29:06.987Z,27.00
2022-12-19T23:31:35.309Z,26.08
2022-12-19T23:34:02.834Z,30.98
2022-12-19T23:37:09.062Z,32.38
2022-12-19T23:39:18.814Z,26.05
2022-12-19T23:41:46.452Z,25.85
2022-12-19T23:44:14.080Z,21.35
2022-12-19T23:46:41.528Z,29.70
2022-12-19T23:49:08.988Z,19.35
2022-12-19T23:51:36.413Z,24.05
2022-12-19T23:54:03.962Z,29.73
2022-12-19T23:56:32.505Z,22.83
2022-12-19T23:59:00.528Z,29.40
